createdAt,value
2018-04-28T00:00:18.817Z,99873.52
2018-04-28T00:00:50.046Z,99875.45
2018-04-28T00:01:21.312Z,99872.03
2018-04-28T00:01:52.570Z,99875.95
2018-04-28T00:02:23.784Z,99875.68
2018-04-28T00:02:55.064Z,99873.30
2018-04-28T00:03:26.292Z,99877.61
2018-04-28T00:03:57.517Z,99877.27
2018-04-28T00:04:28.726Z,99877.30
2018-04-28T00:04:59.940Z,99882.48
2018-04-28T00:05:31.144Z,99877.56
2018-04-28T00:06:02.353Z,99883.63
2018-04-28T00:06:33.567Z,99875.84
2018-04-28T00:07:04.814Z,99881.52
2018-04-28T00:07:36.012Z,99881.88
2018-04-28T00:08:07.240Z,99875.28
2018-04-28T00:08:38.509Z,99877.39
2018-04-28T00:09:09.719Z,99873.13
2018-04-28T00:09:40.934Z,99877.17
2018-04-28T00:10:12.166Z,99874.71
2018-04-28T00:10:43.374Z,99877.91
2018-04-28T00:11:14.583Z,99873.13
2018-04-28T00:11:45.827Z,99870.58
2018-04-28T00:12:17.023Z,99875.11
2018-04-28T00:12:48.284Z,99873.95
2018-04-28T00:13:19.492Z,99871.16
2018-04-28T00:13:50.711Z,99870.89
2018-04-28T00:14:21.917Z,99872.42
2018-04-28T00:14:53.118Z,99874.27
2018-04-28T00:15:24.303Z,99872.55
2018-04-28T00:15:55.541Z,99877.39
2018-04-28T00:16:26.771Z,99869.17
2018-04-28T00:16:58.002Z,99871.10
2018-04-28T00:17:29.218Z,99869.03
2018-04-28T00:18:00.487Z,99874.27
2018-04-28T00:18:31.698Z,99874.62
2018-04-28T00:19:02.914Z,99874.22
2018-04-28T00:19:34.122Z,99873.82
2018-04-28T00:20:05.465Z,99874.22
2018-04-28T00:20:36.686Z,99877.16
2018-04-28T00:21:07.952Z,99875.80
2018-04-28T00:21:39.165Z,99877.20
2018-04-28T00:22:10.372Z,99871.94
2018-04-28T00:22:41.613Z,99881.56
2018-04-28T00:23:12.832Z,99879.80
2018-04-28T00:23:44.041Z,99880.59
2018-04-28T00:24:15.248Z,99872.77
2018-04-28T00:24:46.461Z,99881.12
2018-04-28T00:25:17.665Z,99884.16
2018-04-28T00:25:48.872Z,99879.97
2018-04-28T00:26:20.081Z,99889.95
2018-04-28T00:26:51.282Z,99885.02
2018-04-28T00:27:22.537Z,99885.41
2018-04-28T00:27:53.734Z,99883.89
2018-04-28T00:28:24.973Z,99889.68
2018-04-28T00:28:56.209Z,99888.09
2018-04-28T00:29:27.424Z,99884.09
2018-04-28T00:29:58.630Z,99885.38
2018-04-28T00:30:29.859Z,99886.61
2018-04-28T00:31:01.065Z,99881.83
2018-04-28T00:31:32.271Z,99890.21
2018-04-28T00:32:03.475Z,99886.30
2018-04-28T00:32:34.741Z,99886.39
2018-04-28T00:33:05.952Z,99889.43
2018-04-28T00:33:37.175Z,99894.34
2018-04-28T00:34:08.386Z,99885.13
2018-04-28T00:34:39.590Z,99891.71
2018-04-28T00:35:10.852Z,99894.31
2018-04-28T00:35:42.067Z,99890.88
2018-04-28T00:36:13.286Z,99892.94
2018-04-28T00:36:44.504Z,99890.83
2018-04-28T00:37:15.719Z,99888.89
2018-04-28T00:37:46.983Z,99895.53
2018-04-28T00:38:18.190Z,99894.08
2018-04-28T00:38:49.400Z,99899.52
2018-04-28T00:39:20.619Z,99901.30
2018-04-28T00:39:51.835Z,99896.02
2018-04-28T00:40:23.053Z,99894.70
2018-04-28T00:40:54.261Z,99906.17
2018-04-28T00:41:25.480Z,99895.44
2018-04-28T00:41:56.699Z,99900.98
2018-04-28T00:42:28.232Z,99900.55
2018-04-28T00:42:59.486Z,99904.09
2018-04-28T00:43:30.696Z,99901.14
2018-04-28T00:44:01.904Z,99895.52
2018-04-28T00:44:33.118Z,99900.71
2018-04-28T00:45:04.350Z,99899.88
2018-04-28T00:45:35.561Z,99904.78
2018-04-28T00:46:06.780Z,99899.52
2018-04-28T00:46:37.983Z,99901.28
2018-04-28T00:47:09.194Z,99904.92
2018-04-28T00:47:40.396Z,99906.76
2018-04-28T00:48:11.645Z,99901.48
2018-04-28T00:48:42.864Z,99907.99
2018-04-28T00:49:14.075Z,99905.27
2018-04-28T00:49:45.336Z,99906.14
2018-04-28T00:50:16.568Z,99903.91
2018-04-28T00:50:47.785Z,99907.99
2018-04-28T00:51:19.098Z,99907.99
2018-04-28T00:51:50.284Z,99903.64
2018-04-28T00:52:21.513Z,99905.39
2018-04-28T00:52:52.765Z,99907.95
2018-04-28T00:53:23.982Z,99908.78
2018-04-28T00:53:55.193Z,99903.91
2018-04-28T00:54:26.400Z,99902.99
2018-04-28T00:54:57.664Z,99900.27
2018-04-28T00:55:28.882Z,99902.95
2018-04-28T00:56:00.095Z,99904.63
2018-04-28T00:56:31.324Z,99904.05
2018-04-28T00:57:02.589Z,99900.27
2018-04-28T00:57:33.814Z,99900.14
2018-04-28T00:58:05.029Z,99901.59
2018-04-28T00:58:36.243Z,99896.80
2018-04-28T00:59:07.462Z,99898.16
2018-04-28T00:59:38.672Z,99899.22
2018-04-28T01:00:09.887Z,99898.34
2018-04-28T01:00:41.111Z,99895.05
2018-04-28T01:01:12.321Z,99894.59
2018-04-28T01:01:43.540Z,99893.16
2018-04-28T01:02:14.773Z,99899.52
2018-04-28T01:02:46.010Z,99893.33
2018-04-28T01:03:17.237Z,99900.37
2018-04-28T01:03:48.452Z,99898.03
2018-04-28T01:04:19.663Z,99898.55
2018-04-28T01:04:50.919Z,99899.69
2018-04-28T01:05:22.129Z,99900.20
2018-04-28T01:05:53.356Z,99894.63
2018-04-28T01:06:24.574Z,99894.71
2018-04-28T01:06:55.796Z,99891.77
2018-04-28T01:07:27.005Z,99891.11
2018-04-28T01:07:58.227Z,99894.50
2018-04-28T01:08:29.454Z,99894.02
2018-04-28T01:09:00.671Z,99890.90
2018-04-28T01:09:31.913Z,99894.81
2018-04-28T01:10:03.181Z,99895.66
2018-04-28T01:10:34.394Z,99893.67
2018-04-28T01:11:05.608Z,99893.50
2018-04-28T01:11:36.818Z,99892.27
2018-04-28T01:12:08.023Z,99897.57
2018-04-28T01:12:39.273Z,99900.20
2018-04-28T01:13:10.489Z,99898.33
2018-04-28T01:13:41.705Z,99893.45
2018-04-28T01:14:12.921Z,99901.05
2018-04-28T01:14:44.136Z,99895.69
2018-04-28T01:15:15.366Z,99899.16
2018-04-28T01:15:46.595Z,99896.97
2018-04-28T01:16:17.800Z,99896.28
2018-04-28T01:16:49.018Z,99895.75
2018-04-28T01:17:20.248Z,99900.63
2018-04-28T01:17:51.497Z,99896.63
2018-04-28T01:18:22.710Z,99899.23
2018-04-28T01:18:53.934Z,99899.95
2018-04-28T01:19:25.211Z,99899.00
2018-04-28T01:19:56.408Z,99902.27
2018-04-28T01:20:29.174Z,99899.22
2018-04-28T01:21:00.375Z,99901.25
2018-04-28T01:21:31.590Z,99902.39
2018-04-28T01:22:02.796Z,99900.64
2018-04-28T01:22:34.021Z,99900.38
2018-04-28T01:23:05.256Z,99902.66
2018-04-28T01:23:36.466Z,99900.02
2018-04-28T01:24:07.721Z,99903.58
2018-04-28T01:24:38.929Z,99899.75
2018-04-28T01:25:10.134Z,99900.94
2018-04-28T01:25:41.354Z,99900.67
2018-04-28T01:26:12.563Z,99906.11
2018-04-28T01:26:43.777Z,99903.62
2018-04-28T01:27:14.989Z,99903.66
2018-04-28T01:27:46.244Z,99901.46
2018-04-28T01:28:17.464Z,99902.73
2018-04-28T01:28:48.685Z,99898.83
2018-04-28T01:29:19.895Z,99898.51
2018-04-28T01:29:51.108Z,99892.41
2018-04-28T01:30:22.348Z,99897.33
2018-04-28T01:30:53.569Z,99891.74
2018-04-28T01:31:24.768Z,99891.03
2018-04-28T01:31:56.002Z,99893.39
2018-04-28T01:32:27.253Z,99888.42
2018-04-28T01:32:58.472Z,99886.66
2018-04-28T01:33:29.701Z,99894.57
2018-04-28T01:34:00.912Z,99894.66
2018-04-28T01:34:32.117Z,99894.22
2018-04-28T01:35:03.377Z,99898.25
2018-04-28T01:35:34.576Z,99902.64
2018-04-28T01:36:05.790Z,99894.20
2018-04-28T01:36:36.997Z,99899.39
2018-04-28T01:37:08.211Z,99894.30
2018-04-28T01:37:39.428Z,99897.41
2018-04-28T01:38:10.646Z,99901.09
2018-04-28T01:38:41.839Z,99899.61
2018-04-28T01:39:13.112Z,99901.72
2018-04-28T01:39:44.387Z,99894.44
2018-04-28T01:40:15.596Z,99892.60
2018-04-28T01:40:46.801Z,99900.34
2018-04-28T01:41:18.013Z,99897.17
2018-04-28T01:41:49.265Z,99899.30
2018-04-28T01:42:20.496Z,99900.57
2018-04-28T01:42:51.717Z,99893.67
2018-04-28T01:43:22.945Z,99895.78
2018-04-28T01:43:54.163Z,99893.89
2018-04-28T01:44:25.375Z,99895.48
2018-04-28T01:44:56.621Z,99896.01
2018-04-28T01:45:27.848Z,99895.20
2018-04-28T01:45:59.070Z,99894.28
2018-04-28T01:46:30.275Z,99890.38
2018-04-28T01:47:01.502Z,99896.13
2018-04-28T01:47:32.722Z,99888.30
2018-04-28T01:48:04.071Z,99895.91
2018-04-28T01:48:35.258Z,99895.30
2018-04-28T01:49:06.481Z,99899.21
2018-04-28T01:49:37.730Z,99893.93
2018-04-28T01:50:08.987Z,99896.53
2018-04-28T01:50:40.197Z,99900.97
2018-04-28T01:51:11.405Z,99903.20
2018-04-28T01:51:42.616Z,99902.33
2018-04-28T01:52:13.845Z,99901.89
2018-04-28T01:52:45.052Z,99894.81
2018-04-28T01:53:16.270Z,99899.34
2018-04-28T01:53:47.494Z,99901.00
2018-04-28T01:54:18.707Z,99898.81
2018-04-28T01:54:49.922Z,99899.73
2018-04-28T01:55:21.179Z,99893.81
2018-04-28T01:55:52.383Z,99897.23
2018-04-28T01:56:23.601Z,99896.72
2018-04-28T01:56:54.801Z,99897.16
2018-04-28T01:57:26.013Z,99899.52
2018-04-28T01:57:57.216Z,99896.80
2018-04-28T01:58:28.807Z,99896.72
2018-04-28T01:59:00.018Z,99899.08
2018-04-28T01:59:31.229Z,99898.51
2018-04-28T02:00:02.977Z,99898.95
2018-04-28T02:00:34.221Z,99898.91
2018-04-28T02:01:05.433Z,99902.73
2018-04-28T02:01:36.660Z,99904.05
2018-04-28T02:02:07.920Z,99906.16
2018-04-28T02:02:39.138Z,99903.44
2018-04-28T02:03:10.341Z,99896.33
2018-04-28T02:03:41.549Z,99904.31
2018-04-28T02:04:12.757Z,99901.20
2018-04-28T02:04:43.962Z,99904.41
2018-04-28T02:05:15.165Z,99903.41
2018-04-28T02:05:46.370Z,99901.91
2018-04-28T02:06:17.581Z,99903.67
2018-04-28T02:06:48.821Z,99899.63
2018-04-28T02:07:20.065Z,99895.94
2018-04-28T02:07:51.267Z,99890.19
2018-04-28T02:08:22.481Z,99898.22
2018-04-28T02:08:53.688Z,99900.03
2018-04-28T02:09:24.921Z,99901.30
2018-04-28T02:09:56.119Z,99898.62
2018-04-28T02:10:27.321Z,99904.30
2018-04-28T02:10:58.531Z,99904.64
2018-04-28T02:11:29.746Z,99898.36
2018-04-28T02:12:01.012Z,99900.16
2018-04-28T02:12:32.264Z,99896.64
2018-04-28T02:13:03.461Z,99898.67
2018-04-28T02:13:34.676Z,99899.98
2018-04-28T02:14:05.881Z,99900.50
2018-04-28T02:14:37.112Z,99899.14
2018-04-28T02:15:08.311Z,99904.38
2018-04-28T02:15:39.525Z,99902.18
2018-04-28T02:16:10.741Z,99905.52
2018-04-28T02:16:41.949Z,99901.09
2018-04-28T02:17:13.204Z,99903.20
2018-04-28T02:17:44.421Z,99903.63
2018-04-28T02:18:15.625Z,99899.20
2018-04-28T02:18:46.838Z,99909.97
2018-04-28T02:19:18.027Z,99902.89
2018-04-28T02:19:49.233Z,99905.92
2018-04-28T02:20:20.446Z,99905.92
2018-04-28T02:20:51.657Z,99904.96
2018-04-28T02:21:22.926Z,99907.19
2018-04-28T02:21:54.140Z,99905.57
2018-04-28T02:22:25.395Z,99905.57
2018-04-28T02:22:56.599Z,99905.84
2018-04-28T02:23:27.818Z,99907.42
2018-04-28T02:23:59.020Z,99904.61
2018-04-28T02:24:30.220Z,99900.20
2018-04-28T02:25:01.435Z,99904.47
2018-04-28T02:25:32.644Z,99905.36
2018-04-28T02:26:03.848Z,99901.87
2018-04-28T02:26:35.057Z,99904.13
2018-04-28T02:27:06.267Z,99901.52
2018-04-28T02:27:37.513Z,99902.33
2018-04-28T02:28:08.703Z,99910.23
2018-04-28T02:28:39.913Z,99905.48
2018-04-28T02:29:11.116Z,99904.95
2018-04-28T02:29:42.329Z,99905.84
2018-04-28T02:30:13.544Z,99902.19
2018-04-28T02:30:44.757Z,99896.73
2018-04-28T02:31:15.985Z,99908.55
2018-04-28T02:31:47.208Z,99905.00
2018-04-28T02:32:18.423Z,99901.79
2018-04-28T02:32:49.662Z,99900.86
2018-04-28T02:33:20.865Z,99903.23
2018-04-28T02:33:52.078Z,99904.47
2018-04-28T02:34:23.294Z,99903.46
2018-04-28T02:34:54.511Z,99842.02
2018-04-28T02:35:25.750Z,99905.56
2018-04-28T02:35:57.036Z,99905.62
2018-04-28T02:36:28.217Z,99905.12
2018-04-28T02:36:59.430Z,99907.19
2018-04-28T02:37:30.667Z,99906.45
2018-04-28T02:38:01.917Z,99905.48
2018-04-28T02:38:33.204Z,99905.97
2018-04-28T02:39:04.396Z,99908.55
2018-04-28T02:39:35.613Z,99908.07
2018-04-28T02:40:06.825Z,99903.23
2018-04-28T02:40:38.036Z,99904.20
2018-04-28T02:41:09.257Z,99903.81
2018-04-28T02:41:40.496Z,99908.39
2018-04-28T02:42:11.705Z,99910.67
2018-04-28T02:42:42.915Z,99909.22
2018-04-28T02:43:14.124Z,99905.62
2018-04-28T02:43:45.325Z,99909.26
2018-04-28T02:44:16.543Z,99914.98
2018-04-28T02:44:47.760Z,99908.87
2018-04-28T02:45:18.980Z,99915.46
2018-04-28T02:45:50.234Z,99910.58
2018-04-28T02:46:21.449Z,99913.17
2018-04-28T02:46:52.660Z,99910.98
2018-04-28T02:47:23.906Z,99910.32
2018-04-28T02:47:55.128Z,99915.46
2018-04-28T02:48:26.349Z,99913.62
2018-04-28T02:48:57.542Z,99905.91
2018-04-28T02:49:28.738Z,99910.71
2018-04-28T02:49:59.999Z,99914.32
2018-04-28T02:50:31.195Z,99907.28
2018-04-28T02:51:02.507Z,99907.64
2018-04-28T02:51:33.690Z,99906.71
2018-04-28T02:52:04.892Z,99914.80
2018-04-28T02:52:36.117Z,99908.69
2018-04-28T02:53:07.391Z,99906.98
2018-04-28T02:53:38.621Z,99911.15
2018-04-28T02:54:09.842Z,99915.16
2018-04-28T02:54:41.052Z,99915.11
2018-04-28T02:55:12.280Z,99912.69
2018-04-28T02:55:43.504Z,99915.81
2018-04-28T02:56:14.721Z,99915.33
2018-04-28T02:56:45.933Z,99917.84
2018-04-28T02:57:17.142Z,99913.34
2018-04-28T02:57:48.348Z,99914.63
2018-04-28T02:58:19.595Z,99911.94
2018-04-28T02:58:50.804Z,99913.73
2018-04-28T02:59:22.028Z,99909.87
2018-04-28T02:59:53.218Z,99914.84
2018-04-28T03:00:24.424Z,99910.58
2018-04-28T03:00:55.635Z,99916.91
2018-04-28T03:01:26.845Z,99911.89
2018-04-28T03:01:58.057Z,99913.95
2018-04-28T03:02:29.300Z,99914.34
2018-04-28T03:03:00.505Z,99914.88
2018-04-28T03:03:31.779Z,99917.96
2018-04-28T03:04:02.990Z,99910.44
2018-04-28T03:04:34.208Z,99916.69
2018-04-28T03:05:05.459Z,99917.12
2018-04-28T03:05:36.673Z,99923.94
2018-04-28T03:06:07.883Z,99918.92
2018-04-28T03:06:39.101Z,99920.81
2018-04-28T03:07:10.328Z,99923.81
2018-04-28T03:07:41.546Z,99922.26
2018-04-28T03:08:12.818Z,99923.14
2018-04-28T03:08:44.061Z,99928.16
2018-04-28T03:09:15.324Z,99925.26
2018-04-28T03:09:46.583Z,99925.73
2018-04-28T03:10:17.793Z,99927.94
2018-04-28T03:10:49.002Z,99928.82
2018-04-28T03:11:20.212Z,99926.70
2018-04-28T03:11:51.458Z,99927.63
2018-04-28T03:12:22.679Z,99934.33
2018-04-28T03:12:53.891Z,99932.13
2018-04-28T03:13:25.097Z,99926.19
2018-04-28T03:13:56.300Z,99928.56
2018-04-28T03:14:27.543Z,99937.84
2018-04-28T03:14:58.797Z,99930.66
2018-04-28T03:15:30.009Z,99937.71
2018-04-28T03:16:01.218Z,99938.02
2018-04-28T03:16:32.427Z,99938.67
2018-04-28T03:17:03.641Z,99936.91
2018-04-28T03:17:34.854Z,99934.67
2018-04-28T03:18:06.077Z,99935.06
2018-04-28T03:18:37.285Z,99936.34
2018-04-28T03:19:08.497Z,99940.73
2018-04-28T03:19:39.713Z,99940.25
2018-04-28T03:20:10.948Z,99940.95
2018-04-28T03:20:42.160Z,99940.37
2018-04-28T03:21:13.361Z,99944.30
2018-04-28T03:21:44.569Z,99947.55
2018-04-28T03:22:15.783Z,99948.13
2018-04-28T03:22:47.075Z,99947.73
2018-04-28T03:23:18.323Z,99941.62
2018-04-28T03:23:49.523Z,99943.90
2018-04-28T03:24:20.776Z,99943.07
2018-04-28T03:24:51.986Z,99947.08
2018-04-28T03:25:23.190Z,99946.68
2018-04-28T03:25:54.409Z,99948.84
2018-04-28T03:26:25.612Z,99950.15
2018-04-28T03:26:56.862Z,99950.64
2018-04-28T03:27:28.098Z,99952.09
2018-04-28T03:27:59.329Z,99947.47
2018-04-28T03:28:30.539Z,99945.23
2018-04-28T03:29:01.769Z,99956.75
2018-04-28T03:29:33.017Z,99957.68
2018-04-28T03:30:04.229Z,99951.56
2018-04-28T03:30:35.437Z,99956.05
2018-04-28T03:31:06.671Z,99957.02
2018-04-28T03:31:37.882Z,99951.39
2018-04-28T03:32:09.136Z,99955.84
2018-04-28T03:32:40.341Z,99956.31
2018-04-28T03:33:11.562Z,99958.52
2018-04-28T03:33:42.781Z,99958.91
2018-04-28T03:34:13.985Z,99962.74
2018-04-28T03:34:45.201Z,99962.34
2018-04-28T03:35:16.401Z,99960.50
2018-04-28T03:35:47.628Z,99959.61
2018-04-28T03:36:18.837Z,99964.68
2018-04-28T03:36:50.057Z,99961.11
2018-04-28T03:37:21.310Z,99959.80
2018-04-28T03:37:52.518Z,99967.22
2018-04-28T03:38:23.742Z,99967.27
2018-04-28T03:38:54.952Z,99962.39
2018-04-28T03:39:26.160Z,99967.58
2018-04-28T03:39:57.369Z,99961.11
2018-04-28T03:40:28.577Z,99961.36
2018-04-28T03:40:59.784Z,99961.50
2018-04-28T03:41:31.009Z,99964.70
2018-04-28T03:42:02.224Z,99967.34
2018-04-28T03:42:33.504Z,99966.76
2018-04-28T03:43:04.721Z,99969.75
2018-04-28T03:43:36.018Z,99964.30
2018-04-28T03:44:07.240Z,99966.68
2018-04-28T03:44:38.463Z,99968.41
2018-04-28T03:45:09.669Z,99964.80
2018-04-28T03:45:40.861Z,99972.45
2018-04-28T03:46:12.070Z,99968.50
2018-04-28T03:46:43.293Z,99973.65
2018-04-28T03:47:14.492Z,99971.70
2018-04-28T03:47:45.713Z,99971.92
2018-04-28T03:48:16.941Z,99974.30
2018-04-28T03:48:48.185Z,99976.70
2018-04-28T03:49:19.398Z,99974.67
2018-04-28T03:49:50.601Z,99976.25
2018-04-28T03:50:21.813Z,99976.02
2018-04-28T03:50:53.021Z,99974.78
2018-04-28T03:51:24.234Z,99976.73
2018-04-28T03:51:55.463Z,99977.44
2018-04-28T03:52:26.660Z,99982.50
2018-04-28T03:52:57.902Z,99980.44
2018-04-28T03:53:29.171Z,99976.14
2018-04-28T03:54:00.428Z,99980.27
2018-04-28T03:54:31.637Z,99977.14
2018-04-28T03:55:02.852Z,99979.34
2018-04-28T03:55:34.058Z,99978.50
2018-04-28T03:56:05.290Z,99980.75
2018-04-28T03:56:36.505Z,99979.92
2018-04-28T03:57:07.727Z,99983.53
2018-04-28T03:57:38.945Z,99978.23
2018-04-28T03:58:10.152Z,99980.88
2018-04-28T03:58:41.363Z,99981.86
2018-04-28T03:59:12.615Z,99977.46
2018-04-28T03:59:43.841Z,99979.80
2018-04-28T04:00:15.057Z,99983.49
2018-04-28T04:00:46.281Z,99983.09
2018-04-28T04:01:17.489Z,99979.72
2018-04-28T04:01:48.697Z,99982.58
2018-04-28T04:02:19.909Z,99985.92
2018-04-28T04:02:51.090Z,99984.21
2018-04-28T04:03:22.292Z,99989.92
2018-04-28T04:03:53.520Z,99988.48
2018-04-28T04:04:24.834Z,99982.70
2018-04-28T04:04:56.042Z,99991.95
2018-04-28T04:05:27.249Z,99987.94
2018-04-28T04:05:58.457Z,99991.86
2018-04-28T04:06:30.243Z,99990.85
2018-04-28T04:07:01.508Z,99991.68
2018-04-28T04:07:32.713Z,99989.84
2018-04-28T04:08:03.931Z,99992.34
2018-04-28T04:08:35.147Z,99993.17
2018-04-28T04:09:06.362Z,99993.17
2018-04-28T04:09:37.621Z,99988.77
2018-04-28T04:10:08.832Z,99991.23
2018-04-28T04:10:40.037Z,99993.27
2018-04-28T04:11:11.255Z,99998.06
2018-04-28T04:11:42.480Z,99995.31
2018-04-28T04:12:13.688Z,99994.08
2018-04-28T04:12:44.889Z,99991.00
2018-04-28T04:13:16.144Z,99998.06
2018-04-28T04:13:47.354Z,99995.91
2018-04-28T04:14:18.566Z,100002.48
2018-04-28T04:14:49.812Z,99999.85
2018-04-28T04:15:21.033Z,99997.66
2018-04-28T04:15:52.256Z,99995.89
2018-04-28T04:16:23.465Z,99999.36
2018-04-28T04:16:54.669Z,100005.05
2018-04-28T04:17:25.880Z,100004.12
2018-04-28T04:17:57.092Z,100003.01
2018-04-28T04:18:28.300Z,100000.28
2018-04-28T04:18:59.515Z,99997.16
2018-04-28T04:19:30.785Z,100001.64
2018-04-28T04:20:02.129Z,99999.35
2018-04-28T04:20:33.358Z,100005.17
2018-04-28T04:21:04.636Z,100003.45
2018-04-28T04:21:35.834Z,100002.48
2018-04-28T04:22:07.078Z,100003.84
2018-04-28T04:22:38.303Z,100003.01
2018-04-28T04:23:09.512Z,100012.44
2018-04-28T04:23:40.748Z,100007.73
2018-04-28T04:24:11.950Z,100009.70
2018-04-28T04:24:43.175Z,100004.59
2018-04-28T04:25:14.395Z,100009.25
2018-04-28T04:25:45.602Z,100012.16
2018-04-28T04:26:16.848Z,100009.91
2018-04-28T04:26:48.061Z,100004.06
2018-04-28T04:27:19.269Z,100008.02
2018-04-28T04:27:50.489Z,100011.58
2018-04-28T04:28:21.741Z,100014.75
2018-04-28T04:28:52.961Z,100012.24
2018-04-28T04:29:24.173Z,100016.87
2018-04-28T04:29:55.394Z,100017.31
2018-04-28T04:30:26.604Z,100012.34
2018-04-28T04:30:57.816Z,100014.55
2018-04-28T04:31:29.025Z,100011.80
2018-04-28T04:32:00.371Z,100017.17
2018-04-28T04:32:31.536Z,100015.85
2018-04-28T04:33:02.751Z,100016.87
2018-04-28T04:33:33.989Z,100020.48
2018-04-28T04:34:05.206Z,100020.27
2018-04-28T04:34:36.418Z,100017.44
2018-04-28T04:35:07.617Z,100022.55
2018-04-28T04:35:38.835Z,100016.20
2018-04-28T04:36:10.041Z,100020.06
2018-04-28T04:36:41.245Z,100018.08
2018-04-28T04:37:12.491Z,100021.52
2018-04-28T04:37:43.719Z,100016.28
2018-04-28T04:38:14.956Z,100022.34
2018-04-28T04:38:46.168Z,100019.13
2018-04-28T04:39:17.386Z,100021.77
2018-04-28T04:39:48.608Z,100023.23
2018-04-28T04:40:19.824Z,100024.47
2018-04-28T04:40:51.033Z,100024.76
2018-04-28T04:41:22.244Z,100027.31
2018-04-28T04:41:53.497Z,100022.03
2018-04-28T04:42:24.717Z,100029.17
2018-04-28T04:42:56.041Z,100028.33
2018-04-28T04:43:27.245Z,100026.48
2018-04-28T04:43:58.453Z,100020.41
2018-04-28T04:44:29.679Z,100027.75
2018-04-28T04:45:00.888Z,100025.86
2018-04-28T04:45:32.097Z,100031.05
2018-04-28T04:46:03.306Z,100032.23
2018-04-28T04:46:34.529Z,100030.73
2018-04-28T04:47:05.741Z,100032.05
2018-04-28T04:47:36.963Z,100030.28
2018-04-28T04:48:08.228Z,100031.66
2018-04-28T04:48:39.442Z,100034.64
2018-04-28T04:49:10.666Z,100038.91
2018-04-28T04:49:41.886Z,100025.22
2018-04-28T04:50:13.089Z,100031.73
2018-04-28T04:50:44.298Z,100035.83
2018-04-28T04:51:15.522Z,100030.11
2018-04-28T04:51:46.734Z,100030.50
2018-04-28T04:52:17.941Z,100034.03
2018-04-28T04:52:49.153Z,100034.91
2018-04-28T04:53:21.047Z,100032.42
2018-04-28T04:53:52.270Z,100040.25
2018-04-28T04:54:23.485Z,100034.25
2018-04-28T04:54:54.688Z,100037.55
2018-04-28T04:55:25.911Z,100039.52
2018-04-28T04:55:57.186Z,100043.00
2018-04-28T04:56:28.431Z,100038.54
2018-04-28T04:56:59.658Z,100038.98
2018-04-28T04:57:30.889Z,100039.66
2018-04-28T04:58:02.087Z,100040.73
2018-04-28T04:58:33.299Z,100039.63
2018-04-28T04:59:04.523Z,100041.68
2018-04-28T04:59:35.740Z,100038.95
2018-04-28T05:00:06.950Z,100041.61
2018-04-28T05:00:38.185Z,100044.55
2018-04-28T05:01:09.437Z,100040.05
2018-04-28T05:01:40.649Z,100038.78
2018-04-28T05:02:11.893Z,100041.28
2018-04-28T05:02:43.104Z,100045.95
2018-04-28T05:03:14.309Z,100046.34
2018-04-28T05:03:45.557Z,100043.65
2018-04-28T05:04:16.765Z,100037.73
2018-04-28T05:04:47.979Z,100043.33
2018-04-28T05:05:19.189Z,100043.95
2018-04-28T05:05:50.402Z,100041.00
2018-04-28T05:06:21.653Z,100043.39
2018-04-28T05:06:52.923Z,100040.25
2018-04-28T05:07:24.151Z,100042.46
2018-04-28T05:07:55.364Z,100042.55
2018-04-28T05:08:26.598Z,100044.67
2018-04-28T05:08:57.832Z,100045.41
2018-04-28T05:09:29.046Z,100045.80
2018-04-28T05:10:00.270Z,100051.83
2018-04-28T05:10:31.532Z,100051.65
2018-04-28T05:11:02.754Z,100051.45
2018-04-28T05:11:34.001Z,100048.28
2018-04-28T05:12:05.224Z,100044.23
2018-04-28T05:12:36.433Z,100050.39
2018-04-28T05:13:07.674Z,100053.08
2018-04-28T05:13:38.883Z,100053.83
2018-04-28T05:14:10.088Z,100052.60
2018-04-28T05:14:41.293Z,100061.16
2018-04-28T05:15:12.503Z,100048.52
2018-04-28T05:15:43.769Z,100049.74
2018-04-28T05:16:14.988Z,100050.93
2018-04-28T05:16:46.207Z,100052.81
2018-04-28T05:17:17.413Z,100052.66
2018-04-28T05:17:48.646Z,100053.40
2018-04-28T05:18:19.862Z,100052.03
2018-04-28T05:18:51.068Z,100051.30
2018-04-28T05:19:22.284Z,100051.50
2018-04-28T05:19:53.492Z,100051.30
2018-04-28T05:20:25.338Z,100053.59
2018-04-28T05:20:56.597Z,100055.20
2018-04-28T05:21:27.808Z,100054.05
2018-04-28T05:21:59.085Z,100064.63
2018-04-28T05:22:30.304Z,100060.62
2018-04-28T05:23:01.514Z,100062.29
2018-04-28T05:23:32.737Z,100056.33
2018-04-28T05:24:03.956Z,100054.44
2018-04-28T05:24:35.170Z,100056.84
2018-04-28T05:25:06.373Z,100059.28
2018-04-28T05:25:37.576Z,100059.40
2018-04-28T05:26:08.824Z,100059.55
2018-04-28T05:26:40.039Z,100064.11
2018-04-28T05:27:11.287Z,100065.54
2018-04-28T05:27:42.539Z,100062.80
2018-04-28T05:28:13.760Z,100064.52
2018-04-28T05:28:44.981Z,100064.42
2018-04-28T05:29:16.229Z,100063.48
2018-04-28T05:29:47.479Z,100068.00
2018-04-28T05:30:18.724Z,100071.13
2018-04-28T05:30:49.950Z,100068.34
2018-04-28T05:31:21.185Z,100064.23
2018-04-28T05:31:52.413Z,100065.11
2018-04-28T05:32:23.633Z,100066.64
2018-04-28T05:32:54.912Z,100067.08
2018-04-28T05:33:26.192Z,100065.70
2018-04-28T05:33:57.412Z,100062.52
2018-04-28T05:34:28.665Z,100063.33
2018-04-28T05:34:59.885Z,100063.00
2018-04-28T05:35:31.129Z,100066.31
2018-04-28T05:36:02.435Z,100063.23
2018-04-28T05:36:33.614Z,100061.96
2018-04-28T05:37:04.832Z,100061.73
2018-04-28T05:37:36.102Z,100057.67
2018-04-28T05:38:07.418Z,100061.03
2018-04-28T05:38:38.640Z,100057.98
2018-04-28T05:39:09.922Z,100062.25
2018-04-28T05:39:41.190Z,100067.80
2018-04-28T05:40:12.428Z,100061.34
2018-04-28T05:40:43.649Z,100065.02
2018-04-28T05:41:14.857Z,100064.19
2018-04-28T05:41:46.082Z,100067.23
2018-04-28T05:42:17.311Z,100065.66
2018-04-28T05:42:48.533Z,100066.94
2018-04-28T05:43:19.826Z,100067.23
2018-04-28T05:43:51.062Z,100072.03
2018-04-28T05:44:22.276Z,100071.80
2018-04-28T05:44:53.532Z,100068.22
2018-04-28T05:45:24.741Z,100076.20
2018-04-28T05:45:56.000Z,100077.48
2018-04-28T05:46:27.220Z,100075.52
2018-04-28T05:46:58.442Z,100069.44
2018-04-28T05:47:29.657Z,100070.07
2018-04-28T05:48:00.871Z,100069.45
2018-04-28T05:48:32.081Z,100071.69
2018-04-28T05:49:03.307Z,100075.62
2018-04-28T05:49:34.530Z,100071.69
2018-04-28T05:50:05.786Z,100075.56
2018-04-28T05:50:36.999Z,100075.56
2018-04-28T05:51:08.205Z,100077.39
2018-04-28T05:51:39.415Z,100074.09
2018-04-28T05:52:10.633Z,100077.19
2018-04-28T05:52:41.876Z,100076.30
2018-04-28T05:53:13.105Z,100080.70
2018-04-28T05:53:44.338Z,100077.46
2018-04-28T05:54:15.558Z,100078.78
2018-04-28T05:54:46.777Z,100080.45
2018-04-28T05:55:17.984Z,100075.45
2018-04-28T05:55:49.198Z,100081.75
2018-04-28T05:56:20.463Z,100087.27
2018-04-28T05:56:51.705Z,100083.46
2018-04-28T05:57:22.904Z,100075.77
2018-04-28T05:57:54.174Z,100084.24
2018-04-28T05:58:25.420Z,100088.60
2018-04-28T05:58:56.692Z,100081.84
2018-04-28T05:59:27.930Z,100080.13
2018-04-28T05:59:59.158Z,100082.28
2018-04-28T06:00:30.381Z,100083.71
2018-04-28T06:01:01.585Z,100083.70
2018-04-28T06:01:32.797Z,100089.53
2018-04-28T06:02:04.057Z,100083.46
2018-04-28T06:02:35.265Z,100089.48
2018-04-28T06:03:06.489Z,100084.67
2018-04-28T06:03:37.707Z,100086.00